Terminal Aerodrome Forecast
Issued by NWS Pueblo, CO

Home | Current Version | Previous Version | Text Only | Print | Product List | Glossary On
Versions: 1 2 3 4 5 6 7 8 9 10 11 12 13 14 15 16 17 18 19 20
000
FTUS45 KPUB 260531
TAFCOS
TAF
KCOS 260531Z 2606/2706 03013KT P6SM BKN130
     FM261300 03015KT P6SM SCT130
     FM261700 35015G25KT P6SM SCT040 BKN130
     FM262000 35015G25KT P6SM VCSH SCT050 BKN080
     FM262300 36015G25KT 5SM -SHRA BKN050=

USA.gov is the U.S. government's official web portal to all federal, state and local government web resources and services.